sensor_id;sensor_type;location;lat;lon;timestamp;pressure;altitude;pressure_sealevel;temperature;humidity
48718;BME280;34521;33.042;-96.586;2023-05-19T00:00:17;99301.36;;;25.41;32.30
48718;BME280;34521;33.042;-96.586;2023-05-19T00:02:42;99306.32;;;25.07;32.24
48718;BME280;34521;33.042;-96.586;2023-05-19T00:05:07;99314.92;;;25.09;31.90
48718;BME280;34521;33.042;-96.586;2023-05-19T00:07:31;99324.04;;;24.80;31.66
48718;BME280;34521;33.042;-96.586;2023-05-19T00:09:57;99336.28;;;24.34;31.78
48718;BME280;34521;33.042;-96.586;2023-05-19T00:12:22;99349.13;;;24.56;31.49
48718;BME280;34521;33.042;-96.586;2023-05-19T00:14:47;99358.99;;;24.66;31.09
48718;BME280;34521;33.042;-96.586;2023-05-19T00:17:11;99369.22;;;24.69;31.28
48718;BME280;34521;33.042;-96.586;2023-05-19T00:19:36;99380.98;;;24.93;31.03
48718;BME280;34521;33.042;-96.586;2023-05-19T00:22:01;99386.90;;;24.96;30.99
48718;BME280;34521;33.042;-96.586;2023-05-19T00:24:26;99390.06;;;23.96;32.45
48718;BME280;34521;33.042;-96.586;2023-05-19T00:26:51;99390.46;;;25.06;31.08
48718;BME280;34521;33.042;-96.586;2023-05-19T00:29:16;99403.20;;;24.33;31.50
48718;BME280;34521;33.042;-96.586;2023-05-19T00:31:41;99408.38;;;24.63;30.86
48718;BME280;34521;33.042;-96.586;2023-05-19T00:34:06;99408.22;;;24.57;30.70
48718;BME280;34521;33.042;-96.586;2023-05-19T00:36:31;99414.32;;;24.33;31.63
48718;BME280;34521;33.042;-96.586;2023-05-19T00:38:56;99417.51;;;24.57;30.97
48718;BME280;34521;33.042;-96.586;2023-05-19T00:41:21;99423.92;;;24.80;30.91
48718;BME280;34521;33.042;-96.586;2023-05-19T00:43:47;99437.58;;;23.69;32.76
48718;BME280;34521;33.042;-96.586;2023-05-19T00:46:11;99446.20;;;24.91;30.96
48718;BME280;34521;33.042;-96.586;2023-05-19T00:48:37;99454.12;;;24.13;31.12
48718;BME280;34521;33.042;-96.586;2023-05-19T00:51:03;99453.09;;;24.51;31.03
48718;BME280;34521;33.042;-96.586;2023-05-19T00:53:26;99453.00;;;24.35;30.53
48718;BME280;34521;33.042;-96.586;2023-05-19T00:55:52;99457.74;;;24.25;31.22
48718;BME280;34521;33.042;-96.586;2023-05-19T00:58:18;99458.28;;;24.68;30.88
48718;BME280;34521;33.042;-96.586;2023-05-19T01:00:42;99461.77;;;24.92;30.77
48718;BME280;34521;33.042;-96.586;2023-05-19T01:03:07;99467.05;;;25.00;30.54
48718;BME280;34521;33.042;-96.586;2023-05-19T01:05:32;99471.41;;;25.55;30.37
48718;BME280;34521;33.042;-96.586;2023-05-19T01:07:57;99474.34;;;25.43;30.37
48718;BME280;34521;33.042;-96.586;2023-05-19T01:10:22;99476.64;;;25.10;30.90
48718;BME280;34521;33.042;-96.586;2023-05-19T01:12:47;99477.36;;;24.79;30.43
48718;BME280;34521;33.042;-96.586;2023-05-19T01:15:12;99475.87;;;24.55;30.71
48718;BME280;34521;33.042;-96.586;2023-05-19T01:17:42;99478.26;;;24.47;30.46
48718;BME280;34521;33.042;-96.586;2023-05-19T01:20:06;99488.61;;;24.27;31.47
48718;BME280;34521;33.042;-96.586;2023-05-19T01:25:03;99490.23;;;25.05;30.56
48718;BME280;34521;33.042;-96.586;2023-05-19T01:29:52;99513.53;;;24.02;31.83
48718;BME280;34521;33.042;-96.586;2023-05-19T01:32:07;99515.67;;;24.33;31.12
48718;BME280;34521;33.042;-96.586;2023-05-19T01:34:33;99514.89;;;24.41;30.53
48718;BME280;34521;33.042;-96.586;2023-05-19T01:36:58;99507.14;;;24.51;30.25
48718;BME280;34521;33.042;-96.586;2023-05-19T01:39:22;99503.19;;;24.06;31.13
48718;BME280;34521;33.042;-96.586;2023-05-19T01:41:48;99494.76;;;24.58;30.57
48718;BME280;34521;33.042;-96.586;2023-05-19T01:44:12;99497.55;;;25.07;30.47
48718;BME280;34521;33.042;-96.586;2023-05-19T01:46:38;99499.99;;;24.80;30.37
48718;BME280;34521;33.042;-96.586;2023-05-19T01:49:03;99509.87;;;23.37;32.18
48718;BME280;34521;33.042;-96.586;2023-05-19T01:51:27;99512.31;;;24.09;30.91
48718;BME280;34521;33.042;-96.586;2023-05-19T01:53:52;99513.48;;;24.07;30.75
48718;BME280;34521;33.042;-96.586;2023-05-19T01:56:24;99518.49;;;24.07;30.46
48718;BME280;34521;33.042;-96.586;2023-05-19T01:58:45;99522.93;;;24.25;31.04
48718;BME280;34521;33.042;-96.586;2023-05-19T02:01:15;99524.78;;;24.44;30.91
48718;BME280;34521;33.042;-96.586;2023-05-19T02:03:42;99515.78;;;24.55;30.55
48718;BME280;34521;33.042;-96.586;2023-05-19T02:06:06;99509.43;;;24.75;30.46
48718;BME280;34521;33.042;-96.586;2023-05-19T02:08:29;99508.58;;;24.55;30.50
48718;BME280;34521;33.042;-96.586;2023-05-19T02:10:53;99516.19;;;22.70;32.93
48718;BME280;34521;33.042;-96.586;2023-05-19T02:13:13;99511.03;;;24.54;30.93
48718;BME280;34521;33.042;-96.586;2023-05-19T02:15:40;99505.18;;;23.92;30.77
48718;BME280;34521;33.042;-96.586;2023-05-19T02:18:03;99503.36;;;24.17;30.54
48718;BME280;34521;33.042;-96.586;2023-05-19T02:20:28;99502.47;;;24.38;30.78
48718;BME280;34521;33.042;-96.586;2023-05-19T02:22:53;99500.85;;;24.19;30.72
48718;BME280;34521;33.042;-96.586;2023-05-19T02:25:18;99493.31;;;24.59;30.64
48718;BME280;34521;33.042;-96.586;2023-05-19T02:27:43;99485.03;;;24.63;30.43
48718;BME280;34521;33.042;-96.586;2023-05-19T02:30:09;99484.15;;;24.91;30.47
48718;BME280;34521;33.042;-96.586;2023-05-19T02:32:33;99489.74;;;24.16;31.43
48718;BME280;34521;33.042;-96.586;2023-05-19T02:34:58;99492.07;;;24.10;30.43
48718;BME280;34521;33.042;-96.586;2023-05-19T02:37:23;99496.45;;;23.28;31.06
48718;BME280;34521;33.042;-96.586;2023-05-19T02:39:48;99496.35;;;23.89;31.35
48718;BME280;34521;33.042;-96.586;2023-05-19T02:42:13;99496.84;;;24.00;30.86
48718;BME280;34521;33.042;-96.586;2023-05-19T02:44:38;99502.34;;;24.25;30.67
48718;BME280;34521;33.042;-96.586;2023-05-19T02:47:03;99506.65;;;24.47;30.51
48718;BME280;34521;33.042;-96.586;2023-05-19T02:49:28;99503.44;;;24.69;30.37
48718;BME280;34521;33.042;-96.586;2023-05-19T02:51:53;99504.54;;;23.22;32.33
48718;BME280;34521;33.042;-96.586;2023-05-19T02:54:18;99502.56;;;24.09;31.09
48718;BME280;34521;33.042;-96.586;2023-05-19T02:56:43;99506.33;;;23.51;30.80
48718;BME280;34521;33.042;-96.586;2023-05-19T02:59:08;99505.61;;;23.78;30.65
48718;BME280;34521;33.042;-96.586;2023-05-19T03:01:33;99509.11;;;23.82;30.90
48718;BME280;34521;33.042;-96.586;2023-05-19T03:03:58;99512.07;;;24.02;30.68
48718;BME280;34521;33.042;-96.586;2023-05-19T03:06:24;99513.54;;;24.39;30.38
48718;BME280;34521;33.042;-96.586;2023-05-19T03:08:48;99506.74;;;24.92;30.43
48718;BME280;34521;33.042;-96.586;2023-05-19T03:11:14;99502.62;;;24.46;30.55
48718;BME280;34521;33.042;-96.586;2023-05-19T03:13:39;99508.88;;;23.93;32.22
48718;BME280;34521;33.042;-96.586;2023-05-19T03:16:04;99508.10;;;23.78;31.45
48718;BME280;34521;33.042;-96.586;2023-05-19T03:18:29;99506.15;;;23.54;31.00
48718;BME280;34521;33.042;-96.586;2023-05-19T03:20:54;99512.14;;;23.21;31.09
48718;BME280;34521;33.042;-96.586;2023-05-19T03:23:19;99520.99;;;23.83;31.11
48718;BME280;34521;33.042;-96.586;2023-05-19T03:25:44;99520.76;;;23.59;31.01
48718;BME280;34521;33.042;-96.586;2023-05-19T03:28:09;99514.82;;;24.35;30.82
48718;BME280;34521;33.042;-96.586;2023-05-19T03:30:34;99520.55;;;24.57;30.40
48718;BME280;34521;33.042;-96.586;2023-05-19T03:32:59;99521.92;;;24.55;30.53
48718;BME280;34521;33.042;-96.586;2023-05-19T03:35:24;99520.84;;;24.71;30.46
48718;BME280;34521;33.042;-96.586;2023-05-19T03:37:49;99519.24;;;22.66;32.46
48718;BME280;34521;33.042;-96.586;2023-05-19T03:40:14;99514.80;;;23.53;31.16
48718;BME280;34521;33.042;-96.586;2023-05-19T03:42:39;99514.33;;;23.44;30.70
48718;BME280;34521;33.042;-96.586;2023-05-19T03:45:04;99513.42;;;23.44;31.52
48718;BME280;34521;33.042;-96.586;2023-05-19T03:47:29;99511.90;;;23.99;30.91
48718;BME280;34521;33.042;-96.586;2023-05-19T03:49:54;99508.58;;;24.08;30.90
48718;BME280;34521;33.042;-96.586;2023-05-19T03:52:19;99506.77;;;24.44;30.54
48718;BME280;34521;33.042;-96.586;2023-05-19T03:54:44;99499.79;;;24.65;30.46
48718;BME280;34521;33.042;-96.586;2023-05-19T03:57:10;99496.62;;;24.39;30.58
48718;BME280;34521;33.042;-96.586;2023-05-19T03:59:34;99495.82;;;24.51;30.55
48718;BME280;34521;33.042;-96.586;2023-05-19T04:01:59;99497.68;;;23.56;31.80
48718;BME280;34521;33.042;-96.586;2023-05-19T04:04:24;99493.63;;;23.75;31.06
48718;BME280;34521;33.042;-96.586;2023-05-19T04:06:49;99486.08;;;23.87;30.82
48718;BME280;34521;33.042;-96.586;2023-05-19T04:09:15;99478.85;;;23.79;31.14
48718;BME280;34521;33.042;-96.586;2023-05-19T04:11:39;99471.52;;;23.97;30.92
48718;BME280;34521;33.042;-96.586;2023-05-19T04:14:04;99469.35;;;24.43;30.47
48718;BME280;34521;33.042;-96.586;2023-05-19T04:16:29;99466.48;;;24.33;30.40
48718;BME280;34521;33.042;-96.586;2023-05-19T04:18:54;99465.41;;;24.44;30.38
48718;BME280;34521;33.042;-96.586;2023-05-19T04:21:20;99464.88;;;24.51;30.44
48718;BME280;34521;33.042;-96.586;2023-05-19T04:23:44;99464.01;;;24.16;30.64
48718;BME280;34521;33.042;-96.586;2023-05-19T04:26:09;99466.32;;;22.87;32.69
48718;BME280;34521;33.042;-96.586;2023-05-19T04:28:34;99460.27;;;23.77;31.32
48718;BME280;34521;33.042;-96.586;2023-05-19T04:30:59;99456.79;;;23.82;30.47
48718;BME280;34521;33.042;-96.586;2023-05-19T04:33:24;99451.99;;;23.70;31.07
48718;BME280;34521;33.042;-96.586;2023-05-19T04:35:49;99452.74;;;24.15;30.78
48718;BME280;34521;33.042;-96.586;2023-05-19T04:38:15;99453.35;;;24.48;30.49
48718;BME280;34521;33.042;-96.586;2023-05-19T04:40:40;99456.53;;;24.21;30.67
48718;BME280;34521;33.042;-96.586;2023-05-19T04:43:05;99452.23;;;24.19;30.58
48718;BME280;34521;33.042;-96.586;2023-05-19T04:45:30;99451.51;;;24.33;30.79
48718;BME280;34521;33.042;-96.586;2023-05-19T04:47:55;99452.70;;;24.23;30.74
48718;BME280;34521;33.042;-96.586;2023-05-19T04:50:20;99454.27;;;24.42;30.63
48718;BME280;34521;33.042;-96.586;2023-05-19T04:52:45;99460.15;;;23.16;32.64
48718;BME280;34521;33.042;-96.586;2023-05-19T04:55:10;99465.96;;;23.30;31.96
48718;BME280;34521;33.042;-96.586;2023-05-19T04:57:35;99469.39;;;23.71;30.84
48718;BME280;34521;33.042;-96.586;2023-05-19T05:00:00;99467.60;;;23.69;31.29
48718;BME280;34521;33.042;-96.586;2023-05-19T05:02:25;99465.15;;;23.84;31.16
48718;BME280;34521;33.042;-96.586;2023-05-19T05:04:50;99468.62;;;24.00;31.00
48718;BME280;34521;33.042;-96.586;2023-05-19T05:07:15;99469.63;;;23.86;30.73
48718;BME280;34521;33.042;-96.586;2023-05-19T05:09:40;99469.25;;;24.55;30.56
48718;BME280;34521;33.042;-96.586;2023-05-19T05:12:06;99467.86;;;24.41;30.58
48718;BME280;34521;33.042;-96.586;2023-05-19T05:14:30;99468.13;;;24.11;30.76
48718;BME280;34521;33.042;-96.586;2023-05-19T05:16:56;99466.62;;;24.60;30.84
48718;BME280;34521;33.042;-96.586;2023-05-19T05:19:21;99468.22;;;24.50;30.80
48718;BME280;34521;33.042;-96.586;2023-05-19T05:21:46;99474.93;;;22.37;33.14
48718;BME280;34521;33.042;-96.586;2023-05-19T05:24:12;99475.18;;;23.29;31.58
48718;BME280;34521;33.042;-96.586;2023-05-19T05:26:36;99469.85;;;23.34;31.12
48718;BME280;34521;33.042;-96.586;2023-05-19T05:29:00;99467.21;;;23.65;31.44
48718;BME280;34521;33.042;-96.586;2023-05-19T05:31:25;99465.18;;;23.79;31.20
48718;BME280;34521;33.042;-96.586;2023-05-19T05:33:50;99465.64;;;24.01;31.07
48718;BME280;34521;33.042;-96.586;2023-05-19T05:36:15;99467.50;;;23.95;30.94
48718;BME280;34521;33.042;-96.586;2023-05-19T05:38:40;99470.30;;;23.93;30.81
48718;BME280;34521;33.042;-96.586;2023-05-19T05:41:05;99472.03;;;24.43;30.86
48718;BME280;34521;33.042;-96.586;2023-05-19T05:43:30;99467.41;;;24.24;30.89
48718;BME280;34521;33.042;-96.586;2023-05-19T05:45:56;99462.55;;;24.39;30.82
48718;BME280;34521;33.042;-96.586;2023-05-19T05:48:21;99456.02;;;24.72;30.80
48718;BME280;34521;33.042;-96.586;2023-05-19T05:50:46;99461.12;;;22.61;32.68
48718;BME280;34521;33.042;-96.586;2023-05-19T05:53:16;99462.15;;;23.31;31.31
48718;BME280;34521;33.042;-96.586;2023-05-19T05:55:36;99463.96;;;23.07;31.85
48718;BME280;34521;33.042;-96.586;2023-05-19T05:58:00;99470.12;;;23.63;31.36
48718;BME280;34521;33.042;-96.586;2023-05-19T06:00:25;99469.95;;;23.90;31.09
48718;BME280;34521;33.042;-96.586;2023-05-19T06:02:52;99470.63;;;24.00;31.05
48718;BME280;34521;33.042;-96.586;2023-05-19T06:05:16;99470.76;;;24.43;30.65
48718;BME280;34521;33.042;-96.586;2023-05-19T06:07:41;99470.33;;;24.40;30.80
48718;BME280;34521;33.042;-96.586;2023-05-19T06:10:07;99471.99;;;24.34;30.69
48718;BME280;34521;33.042;-96.586;2023-05-19T06:12:31;99467.42;;;24.30;30.81
48718;BME280;34521;33.042;-96.586;2023-05-19T06:14:56;99462.92;;;24.15;30.81
48718;BME280;34521;33.042;-96.586;2023-05-19T06:17:21;99467.61;;;23.39;31.98
48718;BME280;34521;33.042;-96.586;2023-05-19T06:19:46;99464.65;;;23.49;31.82
48718;BME280;34521;33.042;-96.586;2023-05-19T06:22:11;99459.82;;;23.33;31.22
48718;BME280;34521;33.042;-96.586;2023-05-19T06:24:36;99463.01;;;23.24;31.76
48718;BME280;34521;33.042;-96.586;2023-05-19T06:27:01;99462.79;;;23.67;31.44
48718;BME280;34521;33.042;-96.586;2023-05-19T06:29:26;99456.34;;;23.76;31.17
48718;BME280;34521;33.042;-96.586;2023-05-19T06:31:51;99459.99;;;24.00;30.99
48718;BME280;34521;33.042;-96.586;2023-05-19T06:34:16;99459.26;;;24.29;30.73
48718;BME280;34521;33.042;-96.586;2023-05-19T06:36:41;99462.18;;;24.37;30.73
48718;BME280;34521;33.042;-96.586;2023-05-19T06:39:06;99463.21;;;24.24;30.99
48718;BME280;34521;33.042;-96.586;2023-05-19T06:41:32;99461.56;;;24.10;30.95
48718;BME280;34521;33.042;-96.586;2023-05-19T06:43:57;99457.63;;;24.43;30.95
48718;BME280;34521;33.042;-96.586;2023-05-19T06:46:21;99459.65;;;24.55;30.89
48718;BME280;34521;33.042;-96.586;2023-05-19T06:48:46;99461.18;;;22.54;32.78
48718;BME280;34521;33.042;-96.586;2023-05-19T06:51:11;99462.58;;;23.30;31.44
48718;BME280;34521;33.042;-96.586;2023-05-19T06:53:37;99461.16;;;22.98;31.58
48718;BME280;34521;33.042;-96.586;2023-05-19T06:56:01;99461.02;;;23.66;31.25
48718;BME280;34521;33.042;-96.586;2023-05-19T06:58:27;99462.52;;;23.67;31.20
48718;BME280;34521;33.042;-96.586;2023-05-19T07:00:52;99463.88;;;24.02;30.95
48718;BME280;34521;33.042;-96.586;2023-05-19T07:03:17;99467.17;;;23.72;30.78
48718;BME280;34521;33.042;-96.586;2023-05-19T07:05:42;99468.23;;;24.32;30.74
48718;BME280;34521;33.042;-96.586;2023-05-19T07:08:07;99474.49;;;23.92;30.75
48718;BME280;34521;33.042;-96.586;2023-05-19T07:10:32;99475.92;;;24.20;30.81
48718;BME280;34521;33.042;-96.586;2023-05-19T07:12:57;99477.12;;;24.30;30.78
48718;BME280;34521;33.042;-96.586;2023-05-19T07:15:22;99478.77;;;24.10;30.76
48718;BME280;34521;33.042;-96.586;2023-05-19T07:17:47;99485.54;;;23.00;32.39
48718;BME280;34521;33.042;-96.586;2023-05-19T07:20:12;99485.59;;;22.52;32.17
48718;BME280;34521;33.042;-96.586;2023-05-19T07:22:37;99482.93;;;23.25;31.07
48718;BME280;34521;33.042;-96.586;2023-05-19T07:25:02;99482.59;;;23.59;31.21
48718;BME280;34521;33.042;-96.586;2023-05-19T07:27:27;99477.38;;;23.52;31.29
48718;BME280;34521;33.042;-96.586;2023-05-19T07:29:52;99476.70;;;23.80;31.06
48718;BME280;34521;33.042;-96.586;2023-05-19T07:32:17;99477.46;;;22.69;34.13
48718;BME280;34521;33.042;-96.586;2023-05-19T07:34:42;99484.02;;;23.72;32.46
48718;BME280;34521;33.042;-96.586;2023-05-19T07:37:07;99483.33;;;24.01;32.16
48718;BME280;34521;33.042;-96.586;2023-05-19T07:39:34;99488.26;;;24.15;31.94
48718;BME280;34521;33.042;-96.586;2023-05-19T07:41:57;99487.77;;;24.13;31.91
48718;BME280;34521;33.042;-96.586;2023-05-19T07:44:22;99486.28;;;24.24;31.79
48718;BME280;34521;33.042;-96.586;2023-05-19T07:46:47;99483.81;;;24.10;31.70
48718;BME280;34521;33.042;-96.586;2023-05-19T07:49:12;99486.87;;;24.53;31.49
48718;BME280;34521;33.042;-96.586;2023-05-19T07:51:38;99485.29;;;23.66;32.52
48718;BME280;34521;33.042;-96.586;2023-05-19T07:54:03;99476.57;;;22.12;33.58
48718;BME280;34521;33.042;-96.586;2023-05-19T07:56:28;99475.26;;;22.67;32.16
48718;BME280;34521;33.042;-96.586;2023-05-19T07:58:53;99476.73;;;23.39;31.74
48718;BME280;34521;33.042;-96.586;2023-05-19T08:01:18;99476.13;;;23.42;31.78
48718;BME280;34521;33.042;-96.586;2023-05-19T08:03:43;99473.00;;;23.80;31.43
48718;BME280;34521;33.042;-96.586;2023-05-19T08:06:08;99469.90;;;23.71;31.32
48718;BME280;34521;33.042;-96.586;2023-05-19T08:08:33;99469.30;;;24.05;31.28
48718;BME280;34521;33.042;-96.586;2023-05-19T08:11:01;99466.06;;;24.23;31.16
48718;BME280;34521;33.042;-96.586;2023-05-19T08:13:23;99464.83;;;24.04;31.17
48718;BME280;34521;33.042;-96.586;2023-05-19T08:15:48;99463.85;;;23.71;31.32
48718;BME280;34521;33.042;-96.586;2023-05-19T08:18:13;99460.48;;;23.84;31.24
48718;BME280;34521;33.042;-96.586;2023-05-19T08:20:38;99459.96;;;24.52;31.09
48718;BME280;34521;33.042;-96.586;2023-05-19T08:23:03;99455.74;;;23.97;31.18
48718;BME280;34521;33.042;-96.586;2023-05-19T08:25:28;99452.56;;;22.09;33.43
48718;BME280;34521;33.042;-96.586;2023-05-19T08:27:53;99452.79;;;22.35;32.55
48718;BME280;34521;33.042;-96.586;2023-05-19T08:30:18;99447.87;;;22.66;32.06
48718;BME280;34521;33.042;-96.586;2023-05-19T08:32:43;99452.96;;;23.03;32.43
48718;BME280;34521;33.042;-96.586;2023-05-19T08:35:09;99455.45;;;23.50;32.21
48718;BME280;34521;33.042;-96.586;2023-05-19T08:37:34;99452.75;;;23.70;32.04
48718;BME280;34521;33.042;-96.586;2023-05-19T08:39:58;99445.78;;;23.83;31.64
48718;BME280;34521;33.042;-96.586;2023-05-19T08:42:23;99445.55;;;23.95;31.52
48718;BME280;34521;33.042;-96.586;2023-05-19T08:44:48;99446.87;;;24.20;31.27
48718;BME280;34521;33.042;-96.586;2023-05-19T08:47:14;99448.81;;;24.11;31.42
48718;BME280;34521;33.042;-96.586;2023-05-19T08:49:43;99455.73;;;23.74;31.34
48718;BME280;34521;33.042;-96.586;2023-05-19T08:52:08;99455.18;;;23.84;31.28
48718;BME280;34521;33.042;-96.586;2023-05-19T08:54:32;99455.76;;;24.24;31.15
48718;BME280;34521;33.042;-96.586;2023-05-19T08:56:54;99450.34;;;24.20;30.99
48718;BME280;34521;33.042;-96.586;2023-05-19T08:59:19;99453.22;;;22.26;33.19
48718;BME280;34521;33.042;-96.586;2023-05-19T09:01:44;99451.73;;;22.25;33.14
48718;BME280;34521;33.042;-96.586;2023-05-19T09:04:10;99456.87;;;22.59;31.87
48718;BME280;34521;33.042;-96.586;2023-05-19T09:06:34;99464.52;;;23.21;32.02
48718;BME280;34521;33.042;-96.586;2023-05-19T09:08:59;99465.54;;;23.48;31.66
48718;BME280;34521;33.042;-96.586;2023-05-19T09:11:24;99464.40;;;23.62;31.34
48718;BME280;34521;33.042;-96.586;2023-05-19T09:13:49;99460.35;;;23.71;31.28
48718;BME280;34521;33.042;-96.586;2023-05-19T09:16:15;99462.59;;;24.00;31.03
48718;BME280;34521;33.042;-96.586;2023-05-19T09:18:41;99468.51;;;24.00;31.14
48718;BME280;34521;33.042;-96.586;2023-05-19T09:21:05;99469.02;;;24.17;31.02
48718;BME280;34521;33.042;-96.586;2023-05-19T09:23:31;99473.08;;;24.19;31.06
48718;BME280;34521;33.042;-96.586;2023-05-19T09:25:55;99478.79;;;22.43;34.84
48718;BME280;34521;33.042;-96.586;2023-05-19T09:28:24;99487.17;;;22.29;35.87
48718;BME280;34521;33.042;-96.586;2023-05-19T09:30:45;99491.04;;;23.58;34.13
48718;BME280;34521;33.042;-96.586;2023-05-19T09:33:10;99492.44;;;23.54;34.23
48718;BME280;34521;33.042;-96.586;2023-05-19T09:35:35;99490.68;;;23.87;33.70
48718;BME280;34521;33.042;-96.586;2023-05-19T09:38:00;99489.01;;;23.90;33.51
48718;BME280;34521;33.042;-96.586;2023-05-19T09:40:27;99481.92;;;23.92;33.02
48718;BME280;34521;33.042;-96.586;2023-05-19T09:42:50;99482.35;;;21.50;35.49
48718;BME280;34521;33.042;-96.586;2023-05-19T09:45:15;99483.06;;;22.50;34.16
48718;BME280;34521;33.042;-96.586;2023-05-19T09:47:41;99485.10;;;22.76;32.79
48718;BME280;34521;33.042;-96.586;2023-05-19T09:50:07;99488.89;;;23.07;33.19
48718;BME280;34521;33.042;-96.586;2023-05-19T09:52:30;99496.49;;;23.32;32.52
48718;BME280;34521;33.042;-96.586;2023-05-19T09:54:56;99494.21;;;23.36;32.28
48718;BME280;34521;33.042;-96.586;2023-05-19T09:57:25;99495.65;;;23.59;32.07
48718;BME280;34521;33.042;-96.586;2023-05-19T09:59:45;99497.24;;;23.90;31.78
48718;BME280;34521;33.042;-96.586;2023-05-19T10:02:14;99498.52;;;24.01;31.72
48718;BME280;34521;33.042;-96.586;2023-05-19T10:04:35;99497.52;;;24.02;31.76
48718;BME280;34521;33.042;-96.586;2023-05-19T10:07:02;99498.27;;;23.95;31.62
48718;BME280;34521;33.042;-96.586;2023-05-19T10:09:27;99500.79;;;23.94;31.68
48718;BME280;34521;33.042;-96.586;2023-05-19T10:11:52;99508.53;;;24.15;31.80
48718;BME280;34521;33.042;-96.586;2023-05-19T10:14:16;99514.60;;;24.08;31.63
48718;BME280;34521;33.042;-96.586;2023-05-19T10:16:41;99515.47;;;24.15;31.61
48718;BME280;34521;33.042;-96.586;2023-05-19T10:19:07;99516.60;;;24.31;31.75
48718;BME280;34521;33.042;-96.586;2023-05-19T10:21:31;99515.89;;;24.10;31.76
48718;BME280;34521;33.042;-96.586;2023-05-19T10:23:56;99516.14;;;22.98;35.09
48718;BME280;34521;33.042;-96.586;2023-05-19T10:26:22;99516.68;;;21.73;37.75
48718;BME280;34521;33.042;-96.586;2023-05-19T10:28:46;99511.94;;;22.61;37.37
48718;BME280;34521;33.042;-96.586;2023-05-19T10:31:15;99518.35;;;23.30;35.66
48718;BME280;34521;33.042;-96.586;2023-05-19T10:33:46;99518.54;;;22.18;35.94
48718;BME280;34521;33.042;-96.586;2023-05-19T10:36:14;99530.99;;;21.69;36.67
48718;BME280;34521;33.042;-96.586;2023-05-19T10:38:32;99533.42;;;22.23;35.22
48718;BME280;34521;33.042;-96.586;2023-05-19T10:40:59;99535.40;;;22.96;34.23
48718;BME280;34521;33.042;-96.586;2023-05-19T10:43:24;99538.40;;;23.11;33.71
48718;BME280;34521;33.042;-96.586;2023-05-19T10:45:47;99538.48;;;23.35;33.46
48718;BME280;34521;33.042;-96.586;2023-05-19T10:48:10;99535.49;;;23.60;33.20
48718;BME280;34521;33.042;-96.586;2023-05-19T10:50:35;99530.79;;;23.81;32.94
48718;BME280;34521;33.042;-96.586;2023-05-19T10:52:57;99527.03;;;23.77;33.00
48718;BME280;34521;33.042;-96.586;2023-05-19T10:57:52;99534.04;;;24.14;32.64
48718;BME280;34521;33.042;-96.586;2023-05-19T11:02:39;99538.81;;;24.23;32.56
48718;BME280;34521;33.042;-96.586;2023-05-19T11:05:07;99541.78;;;24.26;32.55
48718;BME280;34521;33.042;-96.586;2023-05-19T11:07:28;99547.77;;;24.14;32.72
48718;BME280;34521;33.042;-96.586;2023-05-19T11:09:53;99548.62;;;21.46;35.19
48718;BME280;34521;33.042;-96.586;2023-05-19T11:12:20;99548.93;;;21.61;34.55
48718;BME280;34521;33.042;-96.586;2023-05-19T11:14:43;99553.62;;;21.48;34.65
48718;BME280;34521;33.042;-96.586;2023-05-19T11:17:13;99552.22;;;22.93;32.83
48718;BME280;34521;33.042;-96.586;2023-05-19T11:19:35;99555.00;;;23.44;32.64
48718;BME280;34521;33.042;-96.586;2023-05-19T11:22:08;99555.15;;;23.39;32.48
48718;BME280;34521;33.042;-96.586;2023-05-19T11:24:33;99560.95;;;23.47;32.46
48718;BME280;34521;33.042;-96.586;2023-05-19T11:26:48;99566.59;;;21.69;36.89
48718;BME280;34521;33.042;-96.586;2023-05-19T11:29:14;99562.23;;;23.43;34.00
48718;BME280;34521;33.042;-96.586;2023-05-19T11:31:38;99562.76;;;23.40;33.98
48718;BME280;34521;33.042;-96.586;2023-05-19T11:34:04;99566.75;;;23.63;33.71
48718;BME280;34521;33.042;-96.586;2023-05-19T11:36:28;99568.78;;;23.64;33.61
48718;BME280;34521;33.042;-96.586;2023-05-19T11:38:53;99571.40;;;23.84;33.30
48718;BME280;34521;33.042;-96.586;2023-05-19T11:41:19;99576.66;;;24.02;33.03
48718;BME280;34521;33.042;-96.586;2023-05-19T11:43:43;99582.01;;;24.02;32.99
48718;BME280;34521;33.042;-96.586;2023-05-19T11:46:09;99585.77;;;24.03;32.66
48718;BME280;34521;33.042;-96.586;2023-05-19T11:48:34;99591.80;;;24.30;32.59
48718;BME280;34521;33.042;-96.586;2023-05-19T11:51:00;99597.66;;;23.73;32.72
48718;BME280;34521;33.042;-96.586;2023-05-19T11:53:24;99599.64;;;21.72;35.53
48718;BME280;34521;33.042;-96.586;2023-05-19T11:55:49;99597.92;;;22.01;34.58
48718;BME280;34521;33.042;-96.586;2023-05-19T11:58:14;99596.19;;;22.45;33.19
48718;BME280;34521;33.042;-96.586;2023-05-19T12:00:42;99597.74;;;22.80;33.09
48718;BME280;34521;33.042;-96.586;2023-05-19T12:03:04;99598.24;;;23.24;32.81
48718;BME280;34521;33.042;-96.586;2023-05-19T12:05:29;99600.50;;;23.44;32.73
48718;BME280;34521;33.042;-96.586;2023-05-19T12:07:54;99602.88;;;24.35;31.43
48718;BME280;34521;33.042;-96.586;2023-05-19T12:10:22;99603.23;;;23.80;31.82
48718;BME280;34521;33.042;-96.586;2023-05-19T12:12:45;99603.66;;;23.65;32.08
48718;BME280;34521;33.042;-96.586;2023-05-19T12:15:10;99606.73;;;23.94;32.14
48718;BME280;34521;33.042;-96.586;2023-05-19T12:17:34;99611.05;;;23.94;32.20
48718;BME280;34521;33.042;-96.586;2023-05-19T12:19:59;99616.47;;;23.91;32.06
48718;BME280;34521;33.042;-96.586;2023-05-19T12:22:24;99620.23;;;22.16;36.24
48718;BME280;34521;33.042;-96.586;2023-05-19T12:24:50;99626.32;;;21.83;38.24
48718;BME280;34521;33.042;-96.586;2023-05-19T12:27:18;99624.95;;;22.35;37.17
48718;BME280;34521;33.042;-96.586;2023-05-19T12:29:39;99628.60;;;23.46;35.89
48718;BME280;34521;33.042;-96.586;2023-05-19T12:32:05;99636.68;;;23.47;35.56
48718;BME280;34521;33.042;-96.586;2023-05-19T12:34:29;99642.28;;;23.63;35.24
48718;BME280;34521;33.042;-96.586;2023-05-19T12:36:54;99643.61;;;23.90;34.72